sensor_id;sensor_type;location;lat;lon;timestamp;P1;durP1;ratioP1;P2;durP2;ratioP2
50531;SDS011;36483;37.396;-122.212;2023-06-14T00:01:06;2.30;;;1.20;;
50531;SDS011;36483;37.396;-122.212;2023-06-14T00:03:32;4.00;;;1.17;;
50531;SDS011;36483;37.396;-122.212;2023-06-14T00:06:01;3.45;;;1.27;;
50531;SDS011;36483;37.396;-122.212;2023-06-14T00:08:28;1.10;;;0.80;;
50531;SDS011;36483;37.396;-122.212;2023-06-14T00:10:54;1.83;;;1.20;;
50531;SDS011;36483;37.396;-122.212;2023-06-14T00:13:20;1.17;;;0.90;;
50531;SDS011;36483;37.396;-122.212;2023-06-14T00:16:06;1.52;;;1.10;;
50531;SDS011;36483;37.396;-122.212;2023-06-14T00:18:33;2.20;;;1.27;;
50531;SDS011;36483;37.396;-122.212;2023-06-14T00:20:59;1.33;;;1.00;;
50531;SDS011;36483;37.396;-122.212;2023-06-14T00:23:27;1.42;;;1.00;;
50531;SDS011;36483;37.396;-122.212;2023-06-14T00:25:53;1.52;;;1.10;;
50531;SDS011;36483;37.396;-122.212;2023-06-14T00:28:19;2.15;;;1.00;;
50531;SDS011;36483;37.396;-122.212;2023-06-14T00:30:45;2.88;;;1.00;;
50531;SDS011;36483;37.396;-122.212;2023-06-14T00:33:12;1.33;;;1.00;;
50531;SDS011;36483;37.396;-122.212;2023-06-14T00:35:38;1.88;;;0.90;;
50531;SDS011;36483;37.396;-122.212;2023-06-14T00:38:04;1.35;;;0.90;;
50531;SDS011;36483;37.396;-122.212;2023-06-14T00:40:30;2.22;;;1.23;;
50531;SDS011;36483;37.396;-122.212;2023-06-14T00:42:57;1.80;;;1.00;;
50531;SDS011;36483;37.396;-122.212;2023-06-14T00:45:23;2.58;;;0.95;;
50531;SDS011;36483;37.396;-122.212;2023-06-14T00:47:49;3.72;;;0.90;;
50531;SDS011;36483;37.396;-122.212;2023-06-14T00:50:20;2.30;;;1.00;;
50531;SDS011;36483;37.396;-122.212;2023-06-14T00:52:48;1.05;;;0.82;;
50531;SDS011;36483;37.396;-122.212;2023-06-14T00:55:15;1.40;;;1.00;;
50531;SDS011;36483;37.396;-122.212;2023-06-14T00:57:41;2.00;;;0.82;;
50531;SDS011;36483;37.396;-122.212;2023-06-14T01:00:08;3.42;;;1.00;;
50531;SDS011;36483;37.396;-122.212;2023-06-14T01:02:38;3.05;;;0.77;;
50531;SDS011;36483;37.396;-122.212;2023-06-14T01:05:04;2.08;;;1.00;;
50531;SDS011;36483;37.396;-122.212;2023-06-14T01:13:33;1.30;;;1.08;;
50531;SDS011;36483;37.396;-122.212;2023-06-14T01:16:01;1.35;;;1.00;;
50531;SDS011;36483;37.396;-122.212;2023-06-14T01:18:28;1.70;;;0.90;;
50531;SDS011;36483;37.396;-122.212;2023-06-14T01:20:55;1.75;;;1.00;;
50531;SDS011;36483;37.396;-122.212;2023-06-14T01:23:22;1.30;;;0.90;;
50531;SDS011;36483;37.396;-122.212;2023-06-14T01:25:49;2.63;;;1.05;;
50531;SDS011;36483;37.396;-122.212;2023-06-14T01:28:19;1.85;;;0.80;;
50531;SDS011;36483;37.396;-122.212;2023-06-14T01:30:47;1.23;;;0.70;;
50531;SDS011;36483;37.396;-122.212;2023-06-14T01:33:21;1.13;;;0.90;;
50531;SDS011;36483;37.396;-122.212;2023-06-14T01:35:52;1.92;;;1.00;;
50531;SDS011;36483;37.396;-122.212;2023-06-14T01:38:23;1.20;;;1.00;;
50531;SDS011;36483;37.396;-122.212;2023-06-14T01:40:50;1.08;;;0.73;;
50531;SDS011;36483;37.396;-122.212;2023-06-14T01:43:18;2.15;;;1.00;;
50531;SDS011;36483;37.396;-122.212;2023-06-14T01:45:45;1.55;;;1.00;;
50531;SDS011;36483;37.396;-122.212;2023-06-14T01:48:14;1.33;;;1.02;;
50531;SDS011;36483;37.396;-122.212;2023-06-14T01:50:40;1.50;;;0.80;;
50531;SDS011;36483;37.396;-122.212;2023-06-14T01:53:07;2.05;;;0.90;;
50531;SDS011;36483;37.396;-122.212;2023-06-14T01:55:34;1.83;;;1.02;;
50531;SDS011;36483;37.396;-122.212;2023-06-14T01:58:03;1.20;;;0.80;;
50531;SDS011;36483;37.396;-122.212;2023-06-14T02:00:30;1.30;;;0.80;;
50531;SDS011;36483;37.396;-122.212;2023-06-14T02:02:56;1.63;;;1.00;;
50531;SDS011;36483;37.396;-122.212;2023-06-14T02:05:22;2.42;;;0.95;;
50531;SDS011;36483;37.396;-122.212;2023-06-14T02:07:49;1.60;;;0.90;;
50531;SDS011;36483;37.396;-122.212;2023-06-14T02:10:16;1.23;;;0.93;;
50531;SDS011;36483;37.396;-122.212;2023-06-14T02:12:43;1.95;;;0.90;;
50531;SDS011;36483;37.396;-122.212;2023-06-14T02:15:09;2.17;;;1.00;;
50531;SDS011;36483;37.396;-122.212;2023-06-14T02:17:45;1.55;;;1.00;;
50531;SDS011;36483;37.396;-122.212;2023-06-14T02:20:12;2.75;;;1.10;;
50531;SDS011;36483;37.396;-122.212;2023-06-14T02:22:39;1.50;;;1.05;;
50531;SDS011;36483;37.396;-122.212;2023-06-14T02:25:05;3.35;;;1.10;;
50531;SDS011;36483;37.396;-122.212;2023-06-14T02:27:32;1.70;;;1.08;;
50531;SDS011;36483;37.396;-122.212;2023-06-14T02:29:59;1.90;;;1.02;;
50531;SDS011;36483;37.396;-122.212;2023-06-14T02:32:26;2.78;;;1.08;;
50531;SDS011;36483;37.396;-122.212;2023-06-14T02:34:53;2.00;;;1.05;;
50531;SDS011;36483;37.396;-122.212;2023-06-14T02:37:20;1.90;;;1.00;;
50531;SDS011;36483;37.396;-122.212;2023-06-14T02:39:46;1.95;;;1.10;;
50531;SDS011;36483;37.396;-122.212;2023-06-14T02:42:13;1.30;;;1.00;;
50531;SDS011;36483;37.396;-122.212;2023-06-14T02:44:39;3.38;;;1.00;;
50531;SDS011;36483;37.396;-122.212;2023-06-14T02:47:05;1.63;;;1.00;;
50531;SDS011;36483;37.396;-122.212;2023-06-14T02:49:31;1.58;;;1.05;;
50531;SDS011;36483;37.396;-122.212;2023-06-14T02:51:58;1.70;;;1.10;;
50531;SDS011;36483;37.396;-122.212;2023-06-14T02:54:25;2.10;;;0.98;;
50531;SDS011;36483;37.396;-122.212;2023-06-14T02:56:52;1.92;;;1.10;;
50531;SDS011;36483;37.396;-122.212;2023-06-14T02:59:18;1.52;;;1.00;;
50531;SDS011;36483;37.396;-122.212;2023-06-14T03:01:46;1.63;;;1.10;;
50531;SDS011;36483;37.396;-122.212;2023-06-14T03:04:12;3.65;;;1.30;;
50531;SDS011;36483;37.396;-122.212;2023-06-14T03:06:39;1.45;;;1.10;;
50531;SDS011;36483;37.396;-122.212;2023-06-14T03:09:05;1.75;;;1.20;;
50531;SDS011;36483;37.396;-122.212;2023-06-14T03:11:32;3.63;;;1.00;;
50531;SDS011;36483;37.396;-122.212;2023-06-14T03:13:58;1.58;;;1.10;;
50531;SDS011;36483;37.396;-122.212;2023-06-14T03:16:25;1.80;;;1.20;;
50531;SDS011;36483;37.396;-122.212;2023-06-14T03:18:54;1.75;;;1.10;;
50531;SDS011;36483;37.396;-122.212;2023-06-14T03:21:20;1.92;;;1.20;;
50531;SDS011;36483;37.396;-122.212;2023-06-14T03:23:47;2.40;;;1.00;;
50531;SDS011;36483;37.396;-122.212;2023-06-14T03:26:13;1.92;;;1.20;;
50531;SDS011;36483;37.396;-122.212;2023-06-14T03:28:46;2.10;;;1.35;;
50531;SDS011;36483;37.396;-122.212;2023-06-14T03:31:13;1.83;;;0.97;;
50531;SDS011;36483;37.396;-122.212;2023-06-14T03:33:40;1.48;;;1.00;;
50531;SDS011;36483;37.396;-122.212;2023-06-14T03:36:07;3.10;;;1.30;;
50531;SDS011;36483;37.396;-122.212;2023-06-14T03:38:33;2.15;;;0.90;;
50531;SDS011;36483;37.396;-122.212;2023-06-14T03:41:00;1.92;;;1.10;;
50531;SDS011;36483;37.396;-122.212;2023-06-14T03:43:27;1.50;;;1.20;;
50531;SDS011;36483;37.396;-122.212;2023-06-14T03:45:53;5.05;;;1.40;;
50531;SDS011;36483;37.396;-122.212;2023-06-14T03:48:19;2.35;;;1.10;;
50531;SDS011;36483;37.396;-122.212;2023-06-14T03:50:45;3.42;;;1.15;;
50531;SDS011;36483;37.396;-122.212;2023-06-14T03:53:12;3.42;;;1.20;;
50531;SDS011;36483;37.396;-122.212;2023-06-14T03:55:38;2.22;;;1.20;;
50531;SDS011;36483;37.396;-122.212;2023-06-14T03:58:04;2.85;;;1.00;;
50531;SDS011;36483;37.396;-122.212;2023-06-14T04:00:31;2.40;;;1.20;;
50531;SDS011;36483;37.396;-122.212;2023-06-14T04:02:57;1.58;;;1.20;;
50531;SDS011;36483;37.396;-122.212;2023-06-14T04:05:24;1.80;;;1.15;;
50531;SDS011;36483;37.396;-122.212;2023-06-14T04:07:51;1.83;;;1.10;;
50531;SDS011;36483;37.396;-122.212;2023-06-14T04:10:21;2.20;;;1.33;;
50531;SDS011;36483;37.396;-122.212;2023-06-14T04:12:48;2.25;;;1.20;;
50531;SDS011;36483;37.396;-122.212;2023-06-14T04:15:14;2.00;;;1.20;;
50531;SDS011;36483;37.396;-122.212;2023-06-14T04:17:40;2.67;;;1.10;;
50531;SDS011;36483;37.396;-122.212;2023-06-14T04:20:07;1.88;;;1.10;;
50531;SDS011;36483;37.396;-122.212;2023-06-14T04:22:35;2.45;;;1.15;;
50531;SDS011;36483;37.396;-122.212;2023-06-14T04:25:02;2.75;;;1.48;;
50531;SDS011;36483;37.396;-122.212;2023-06-14T04:27:28;2.97;;;1.38;;
50531;SDS011;36483;37.396;-122.212;2023-06-14T04:29:56;2.90;;;1.20;;
50531;SDS011;36483;37.396;-122.212;2023-06-14T04:32:23;1.58;;;1.20;;
50531;SDS011;36483;37.396;-122.212;2023-06-14T04:34:57;2.30;;;1.23;;
50531;SDS011;36483;37.396;-122.212;2023-06-14T04:37:24;2.47;;;1.27;;
50531;SDS011;36483;37.396;-122.212;2023-06-14T04:39:55;1.75;;;1.10;;
50531;SDS011;36483;37.396;-122.212;2023-06-14T04:42:22;4.05;;;1.40;;
50531;SDS011;36483;37.396;-122.212;2023-06-14T04:44:50;1.55;;;1.13;;
50531;SDS011;36483;37.396;-122.212;2023-06-14T04:47:20;3.20;;;1.23;;
50531;SDS011;36483;37.396;-122.212;2023-06-14T04:49:47;2.88;;;1.08;;
50531;SDS011;36483;37.396;-122.212;2023-06-14T04:52:13;2.03;;;1.10;;
50531;SDS011;36483;37.396;-122.212;2023-06-14T04:54:42;1.95;;;1.17;;
50531;SDS011;36483;37.396;-122.212;2023-06-14T04:57:09;2.28;;;1.10;;
50531;SDS011;36483;37.396;-122.212;2023-06-14T04:59:39;2.15;;;1.20;;
50531;SDS011;36483;37.396;-122.212;2023-06-14T05:02:05;1.98;;;1.33;;
50531;SDS011;36483;37.396;-122.212;2023-06-14T05:04:32;2.15;;;1.25;;
50531;SDS011;36483;37.396;-122.212;2023-06-14T05:06:59;2.10;;;1.30;;
50531;SDS011;36483;37.396;-122.212;2023-06-14T05:09:26;1.90;;;1.02;;
50531;SDS011;36483;37.396;-122.212;2023-06-14T05:11:52;2.13;;;1.13;;
50531;SDS011;36483;37.396;-122.212;2023-06-14T05:14:18;1.95;;;1.45;;
50531;SDS011;36483;37.396;-122.212;2023-06-14T05:16:45;3.13;;;1.40;;
50531;SDS011;36483;37.396;-122.212;2023-06-14T05:19:11;2.15;;;1.40;;
50531;SDS011;36483;37.396;-122.212;2023-06-14T05:21:37;2.25;;;1.27;;
50531;SDS011;36483;37.396;-122.212;2023-06-14T05:24:04;2.08;;;1.40;;
50531;SDS011;36483;37.396;-122.212;2023-06-14T05:26:30;4.18;;;1.50;;
50531;SDS011;36483;37.396;-122.212;2023-06-14T05:28:57;3.85;;;1.55;;
50531;SDS011;36483;37.396;-122.212;2023-06-14T05:31:25;1.50;;;1.10;;
50531;SDS011;36483;37.396;-122.212;2023-06-14T05:33:52;2.97;;;1.25;;
50531;SDS011;36483;37.396;-122.212;2023-06-14T05:36:19;2.78;;;1.50;;
50531;SDS011;36483;37.396;-122.212;2023-06-14T05:38:48;2.22;;;1.50;;
50531;SDS011;36483;37.396;-122.212;2023-06-14T05:41:16;2.65;;;1.45;;
50531;SDS011;36483;37.396;-122.212;2023-06-14T05:43:42;2.78;;;1.50;;
50531;SDS011;36483;37.396;-122.212;2023-06-14T05:46:08;2.33;;;1.25;;
50531;SDS011;36483;37.396;-122.212;2023-06-14T05:48:34;2.03;;;1.30;;
50531;SDS011;36483;37.396;-122.212;2023-06-14T05:51:00;2.42;;;1.45;;
50531;SDS011;36483;37.396;-122.212;2023-06-14T05:53:27;4.45;;;1.63;;
50531;SDS011;36483;37.396;-122.212;2023-06-14T05:55:53;3.22;;;1.50;;
50531;SDS011;36483;37.396;-122.212;2023-06-14T05:58:20;1.92;;;1.30;;
50531;SDS011;36483;37.396;-122.212;2023-06-14T06:00:47;4.28;;;1.50;;
50531;SDS011;36483;37.396;-122.212;2023-06-14T06:03:13;1.95;;;1.48;;
50531;SDS011;36483;37.396;-122.212;2023-06-14T06:05:39;2.33;;;1.30;;
50531;SDS011;36483;37.396;-122.212;2023-06-14T06:08:06;2.97;;;1.48;;
50531;SDS011;36483;37.396;-122.212;2023-06-14T06:10:32;3.75;;;1.40;;
50531;SDS011;36483;37.396;-122.212;2023-06-14T06:12:58;2.38;;;1.50;;
50531;SDS011;36483;37.396;-122.212;2023-06-14T06:15:24;2.25;;;1.40;;
50531;SDS011;36483;37.396;-122.212;2023-06-14T06:17:51;2.88;;;1.17;;
50531;SDS011;36483;37.396;-122.212;2023-06-14T06:20:17;3.20;;;1.75;;
50531;SDS011;36483;37.396;-122.212;2023-06-14T06:22:43;1.67;;;1.40;;
50531;SDS011;36483;37.396;-122.212;2023-06-14T06:25:09;2.00;;;1.50;;
50531;SDS011;36483;37.396;-122.212;2023-06-14T06:27:35;2.97;;;1.70;;
50531;SDS011;36483;37.396;-122.212;2023-06-14T06:30:03;2.85;;;1.30;;
50531;SDS011;36483;37.396;-122.212;2023-06-14T06:32:30;2.45;;;1.40;;
50531;SDS011;36483;37.396;-122.212;2023-06-14T06:34:59;2.67;;;1.60;;
50531;SDS011;36483;37.396;-122.212;2023-06-14T06:37:25;2.20;;;1.40;;
50531;SDS011;36483;37.396;-122.212;2023-06-14T06:39:51;2.78;;;1.30;;
50531;SDS011;36483;37.396;-122.212;2023-06-14T06:42:18;2.60;;;1.35;;
50531;SDS011;36483;37.396;-122.212;2023-06-14T06:44:44;1.73;;;1.40;;
50531;SDS011;36483;37.396;-122.212;2023-06-14T06:47:10;2.63;;;1.20;;
50531;SDS011;36483;37.396;-122.212;2023-06-14T06:49:36;2.10;;;1.42;;
50531;SDS011;36483;37.396;-122.212;2023-06-14T06:52:04;2.35;;;1.10;;
50531;SDS011;36483;37.396;-122.212;2023-06-14T06:54:31;3.20;;;1.58;;
50531;SDS011;36483;37.396;-122.212;2023-06-14T06:56:58;3.83;;;1.55;;
50531;SDS011;36483;37.396;-122.212;2023-06-14T06:59:27;2.25;;;1.27;;
50531;SDS011;36483;37.396;-122.212;2023-06-14T07:01:53;2.20;;;1.40;;
50531;SDS011;36483;37.396;-122.212;2023-06-14T07:04:20;2.38;;;1.20;;
50531;SDS011;36483;37.396;-122.212;2023-06-14T07:06:46;2.15;;;1.60;;
50531;SDS011;36483;37.396;-122.212;2023-06-14T07:09:12;1.40;;;1.25;;
50531;SDS011;36483;37.396;-122.212;2023-06-14T07:11:40;2.53;;;1.60;;
50531;SDS011;36483;37.396;-122.212;2023-06-14T07:14:06;1.85;;;1.50;;
50531;SDS011;36483;37.396;-122.212;2023-06-14T07:16:32;2.70;;;1.50;;
50531;SDS011;36483;37.396;-122.212;2023-06-14T07:18:58;2.75;;;1.90;;
50531;SDS011;36483;37.396;-122.212;2023-06-14T07:21:25;2.55;;;1.50;;
50531;SDS011;36483;37.396;-122.212;2023-06-14T07:23:52;3.03;;;1.98;;
50531;SDS011;36483;37.396;-122.212;2023-06-14T07:26:19;2.67;;;1.67;;
50531;SDS011;36483;37.396;-122.212;2023-06-14T07:28:46;2.42;;;1.50;;
50531;SDS011;36483;37.396;-122.212;2023-06-14T07:31:14;1.98;;;1.40;;
50531;SDS011;36483;37.396;-122.212;2023-06-14T07:33:42;2.00;;;1.45;;
50531;SDS011;36483;37.396;-122.212;2023-06-14T07:36:08;2.53;;;1.92;;
50531;SDS011;36483;37.396;-122.212;2023-06-14T07:38:34;2.95;;;1.98;;
50531;SDS011;36483;37.396;-122.212;2023-06-14T07:41:01;2.55;;;1.65;;
50531;SDS011;36483;37.396;-122.212;2023-06-14T07:43:28;3.58;;;1.70;;
50531;SDS011;36483;37.396;-122.212;2023-06-14T07:45:54;2.22;;;1.38;;
50531;SDS011;36483;37.396;-122.212;2023-06-14T07:48:20;3.25;;;1.40;;
50531;SDS011;36483;37.396;-122.212;2023-06-14T07:50:47;3.72;;;1.80;;
50531;SDS011;36483;37.396;-122.212;2023-06-14T07:53:13;2.80;;;1.60;;
50531;SDS011;36483;37.396;-122.212;2023-06-14T07:55:39;2.63;;;1.40;;
50531;SDS011;36483;37.396;-122.212;2023-06-14T07:58:07;2.30;;;1.88;;
50531;SDS011;36483;37.396;-122.212;2023-06-14T08:00:34;2.45;;;1.80;;
50531;SDS011;36483;37.396;-122.212;2023-06-14T08:03:00;4.20;;;1.80;;
50531;SDS011;36483;37.396;-122.212;2023-06-14T08:05:26;2.17;;;1.50;;
50531;SDS011;36483;37.396;-122.212;2023-06-14T08:07:53;3.63;;;1.60;;
50531;SDS011;36483;37.396;-122.212;2023-06-14T08:10:20;2.78;;;1.60;;
50531;SDS011;36483;37.396;-122.212;2023-06-14T08:12:47;2.40;;;1.40;;
50531;SDS011;36483;37.396;-122.212;2023-06-14T08:15:15;2.78;;;1.60;;
50531;SDS011;36483;37.396;-122.212;2023-06-14T08:17:44;4.05;;;1.73;;
50531;SDS011;36483;37.396;-122.212;2023-06-14T08:20:11;1.70;;;1.20;;
50531;SDS011;36483;37.396;-122.212;2023-06-14T08:22:39;3.22;;;1.85;;
50531;SDS011;36483;37.396;-122.212;2023-06-14T08:25:07;2.10;;;1.58;;
50531;SDS011;36483;37.396;-122.212;2023-06-14T08:27:34;2.50;;;1.60;;
50531;SDS011;36483;37.396;-122.212;2023-06-14T08:30:01;2.58;;;1.63;;
50531;SDS011;36483;37.396;-122.212;2023-06-14T08:32:28;1.85;;;1.42;;
50531;SDS011;36483;37.396;-122.212;2023-06-14T08:34:54;2.00;;;1.40;;
50531;SDS011;36483;37.396;-122.212;2023-06-14T08:37:20;2.28;;;1.58;;
50531;SDS011;36483;37.396;-122.212;2023-06-14T08:39:47;2.28;;;1.67;;
50531;SDS011;36483;37.396;-122.212;2023-06-14T08:42:13;4.18;;;1.70;;
50531;SDS011;36483;37.396;-122.212;2023-06-14T08:44:40;2.05;;;1.40;;
50531;SDS011;36483;37.396;-122.212;2023-06-14T08:47:07;2.45;;;1.60;;
50531;SDS011;36483;37.396;-122.212;2023-06-14T08:49:34;4.07;;;1.60;;
50531;SDS011;36483;37.396;-122.212;2023-06-14T08:52:01;2.80;;;1.50;;
50531;SDS011;36483;37.396;-122.212;2023-06-14T08:54:29;3.97;;;1.75;;
50531;SDS011;36483;37.396;-122.212;2023-06-14T08:56:59;2.67;;;1.50;;
50531;SDS011;36483;37.396;-122.212;2023-06-14T08:59:25;3.88;;;1.45;;
50531;SDS011;36483;37.396;-122.212;2023-06-14T09:01:52;2.72;;;1.67;;
50531;SDS011;36483;37.396;-122.212;2023-06-14T09:04:20;3.30;;;1.60;;
50531;SDS011;36483;37.396;-122.212;2023-06-14T09:06:55;3.30;;;1.40;;
50531;SDS011;36483;37.396;-122.212;2023-06-14T09:09:21;3.08;;;1.48;;
50531;SDS011;36483;37.396;-122.212;2023-06-14T09:11:54;3.33;;;1.50;;
50531;SDS011;36483;37.396;-122.212;2023-06-14T09:14:23;4.82;;;1.50;;
50531;SDS011;36483;37.396;-122.212;2023-06-14T09:16:53;2.15;;;1.73;;
50531;SDS011;36483;37.396;-122.212;2023-06-14T09:19:23;1.92;;;1.60;;
50531;SDS011;36483;37.396;-122.212;2023-06-14T09:21:50;1.88;;;1.48;;
50531;SDS011;36483;37.396;-122.212;2023-06-14T09:24:18;2.55;;;1.60;;
50531;SDS011;36483;37.396;-122.212;2023-06-14T09:26:48;2.28;;;1.40;;
50531;SDS011;36483;37.396;-122.212;2023-06-14T09:29:15;3.10;;;1.80;;
50531;SDS011;36483;37.396;-122.212;2023-06-14T09:31:42;3.28;;;1.45;;
50531;SDS011;36483;37.396;-122.212;2023-06-14T09:34:08;2.10;;;1.60;;
50531;SDS011;36483;37.396;-122.212;2023-06-14T09:36:35;1.90;;;1.40;;
50531;SDS011;36483;37.396;-122.212;2023-06-14T09:39:02;1.90;;;1.40;;
50531;SDS011;36483;37.396;-122.212;2023-06-14T09:41:37;2.80;;;1.52;;
50531;SDS011;36483;37.396;-122.212;2023-06-14T09:44:05;2.30;;;1.45;;
50531;SDS011;36483;37.396;-122.212;2023-06-14T09:46:32;1.98;;;1.30;;
50531;SDS011;36483;37.396;-122.212;2023-06-14T09:48:59;2.78;;;1.30;;
50531;SDS011;36483;37.396;-122.212;2023-06-14T09:51:26;1.65;;;0.90;;
50531;SDS011;36483;37.396;-122.212;2023-06-14T09:53:58;1.42;;;0.90;;
50531;SDS011;36483;37.396;-122.212;2023-06-14T09:56:30;1.17;;;0.83;;
50531;SDS011;36483;37.396;-122.212;2023-06-14T09:59:06;0.90;;;0.70;;
50531;SDS011;36483;37.396;-122.212;2023-06-14T10:01:35;0.90;;;0.77;;
50531;SDS011;36483;37.396;-122.212;2023-06-14T10:04:09;0.90;;;0.75;;
50531;SDS011;36483;37.396;-122.212;2023-06-14T10:06:36;1.23;;;0.90;;
50531;SDS011;36483;37.396;-122.212;2023-06-14T10:09:04;0.88;;;0.70;;
50531;SDS011;36483;37.396;-122.212;2023-06-14T10:11:34;1.10;;;0.90;;
50531;SDS011;36483;37.396;-122.212;2023-06-14T10:14:02;0.80;;;0.70;;
50531;SDS011;36483;37.396;-122.212;2023-06-14T10:16:31;1.00;;;0.73;;
50531;SDS011;36483;37.396;-122.212;2023-06-14T10:21:43;1.17;;;0.88;;
50531;SDS011;36483;37.396;-122.212;2023-06-14T10:24:15;0.85;;;0.70;;
50531;SDS011;36483;37.396;-122.212;2023-06-14T10:26:59;1.67;;;0.80;;
50531;SDS011;36483;37.396;-122.212;2023-06-14T10:29:26;1.80;;;0.65;;
50531;SDS011;36483;37.396;-122.212;2023-06-14T10:31:59;1.13;;;0.70;;
50531;SDS011;36483;37.396;-122.212;2023-06-14T10:34:28;0.82;;;0.60;;
50531;SDS011;36483;37.396;-122.212;2023-06-14T10:37:11;1.10;;;0.60;;
50531;SDS011;36483;37.396;-122.212;2023-06-14T10:39:39;1.00;;;0.70;;
50531;SDS011;36483;37.396;-122.212;2023-06-14T10:42:11;1.10;;;0.60;;
50531;SDS011;36483;37.396;-122.212;2023-06-14T10:44:42;4.20;;;0.90;;
50531;SDS011;36483;37.396;-122.212;2023-06-14T10:47:10;0.60;;;0.60;;
50531;SDS011;36483;37.396;-122.212;2023-06-14T10:49:51;0.90;;;0.60;;
50531;SDS011;36483;37.396;-122.212;2023-06-14T10:52:21;0.85;;;0.70;;
50531;SDS011;36483;37.396;-122.212;2023-06-14T10:55:22;0.88;;;0.63;;
50531;SDS011;36483;37.396;-122.212;2023-06-14T10:57:50;0.70;;;0.50;;
50531;SDS011;36483;37.396;-122.212;2023-06-14T11:00:18;1.15;;;0.40;;
50531;SDS011;36483;37.396;-122.212;2023-06-14T11:03:09;0.95;;;0.40;;
50531;SDS011;36483;37.396;-122.212;2023-06-14T11:06:07;0.35;;;0.30;;
50531;SDS011;36483;37.396;-122.212;2023-06-14T11:11:24;0.88;;;0.52;;
50531;SDS011;36483;37.396;-122.212;2023-06-14T11:13:57;0.40;;;0.40;;
50531;SDS011;36483;37.396;-122.212;2023-06-14T11:16:26;0.77;;;0.47;;
50531;SDS011;36483;37.396;-122.212;2023-06-14T11:18:53;1.08;;;0.40;;
50531;SDS011;36483;37.396;-122.212;2023-06-14T11:21:19;0.52;;;0.50;;
50531;SDS011;36483;37.396;-122.212;2023-06-14T11:23:49;0.75;;;0.43;;
50531;SDS011;36483;37.396;-122.212;2023-06-14T11:26:24;0.50;;;0.40;;
50531;SDS011;36483;37.396;-122.212;2023-06-14T11:28:57;0.95;;;0.47;;
50531;SDS011;36483;37.396;-122.212;2023-06-14T11:31:24;0.40;;;0.40;;
50531;SDS011;36483;37.396;-122.212;2023-06-14T11:33:55;1.08;;;0.52;;
50531;SDS011;36483;37.396;-122.212;2023-06-14T11:36:28;0.82;;;0.50;;
50531;SDS011;36483;37.396;-122.212;2023-06-14T11:38:59;0.57;;;0.50;;
50531;SDS011;36483;37.396;-122.212;2023-06-14T11:46:37;0.60;;;0.60;;
50531;SDS011;36483;37.396;-122.212;2023-06-14T11:49:03;1.42;;;0.70;;
50531;SDS011;36483;37.396;-122.212;2023-06-14T11:51:35;1.10;;;0.70;;
50531;SDS011;36483;37.396;-122.212;2023-06-14T11:54:02;1.10;;;0.70;;
50531;SDS011;36483;37.396;-122.212;2023-06-14T11:56:29;1.73;;;0.80;;
50531;SDS011;36483;37.396;-122.212;2023-06-14T11:58:58;1.00;;;0.70;;
50531;SDS011;36483;37.396;-122.212;2023-06-14T12:01:25;3.45;;;0.90;;
50531;SDS011;36483;37.396;-122.212;2023-06-14T12:03:52;1.38;;;0.88;;
50531;SDS011;36483;37.396;-122.212;2023-06-14T12:06:26;3.05;;;1.25;;
50531;SDS011;36483;37.396;-122.212;2023-06-14T12:08:58;2.53;;;1.30;;
50531;SDS011;36483;37.396;-122.212;2023-06-14T12:11:31;1.80;;;1.00;;
50531;SDS011;36483;37.396;-122.212;2023-06-14T12:13:58;3.42;;;1.08;;
50531;SDS011;36483;37.396;-122.212;2023-06-14T12:16:35;1.83;;;1.10;;
50531;SDS011;36483;37.396;-122.212;2023-06-14T12:19:12;2.78;;;1.30;;
50531;SDS011;36483;37.396;-122.212;2023-06-14T12:21:42;2.05;;;1.50;;
50531;SDS011;36483;37.396;-122.212;2023-06-14T12:24:13;2.30;;;1.45;;
50531;SDS011;36483;37.396;-122.212;2023-06-14T12:26:39;2.00;;;1.40;;
50531;SDS011;36483;37.396;-122.212;2023-06-14T12:29:08;2.85;;;1.40;;
50531;SDS011;36483;37.396;-122.212;2023-06-14T12:31:35;1.95;;;1.40;;
50531;SDS011;36483;37.396;-122.212;2023-06-14T12:34:02;2.78;;;1.73;;
50531;SDS011;36483;37.396;-122.212;2023-06-14T12:36:29;2.17;;;1.60;;
50531;SDS011;36483;37.396;-122.212;2023-06-14T12:38:56;3.03;;;1.50;;
50531;SDS011;36483;37.396;-122.212;2023-06-14T12:41:22;3.35;;;1.52;;
50531;SDS011;36483;37.396;-122.212;2023-06-14T12:43:49;2.55;;;1.50;;
50531;SDS011;36483;37.396;-122.212;2023-06-14T12:46:16;2.78;;;1.63;;
50531;SDS011;36483;37.396;-122.212;2023-06-14T12:48:42;2.78;;;1.75;;
50531;SDS011;36483;37.396;-122.212;2023-06-14T12:51:08;2.42;;;1.40;;
50531;SDS011;36483;37.396;-122.212;2023-06-14T12:53:34;2.22;;;1.45;;
50531;SDS011;36483;37.396;-122.212;2023-06-14T12:56:01;1.80;;;1.30;;
50531;SDS011;36483;37.396;-122.212;2023-06-14T12:58:27;3.92;;;1.52;;
50531;SDS011;36483;37.396;-122.212;2023-06-14T13:00:53;3.50;;;1.50;;
50531;SDS011;36483;37.396;-122.212;2023-06-14T13:03:19;2.65;;;1.67;;
50531;SDS011;36483;37.396;-122.212;2023-06-14T13:05:46;2.83;;;1.63;;
50531;SDS011;36483;37.396;-122.212;2023-06-14T13:08:12;2.20;;;1.70;;
50531;SDS011;36483;37.396;-122.212;2023-06-14T13:10:38;2.58;;;1.55;;
50531;SDS011;36483;37.396;-122.212;2023-06-14T13:13:04;2.95;;;1.77;;
50531;SDS011;36483;37.396;-122.212;2023-06-14T13:15:32;4.10;;;1.80;;
50531;SDS011;36483;37.396;-122.212;2023-06-14T13:17:58;3.70;;;1.90;;
50531;SDS011;36483;37.396;-122.212;2023-06-14T13:20:25;2.22;;;1.45;;
50531;SDS011;36483;37.396;-122.212;2023-06-14T13:22:51;2.63;;;1.40;;
50531;SDS011;36483;37.396;-122.212;2023-06-14T13:25:17;4.60;;;1.85;;
50531;SDS011;36483;37.396;-122.212;2023-06-14T13:27:44;2.60;;;1.40;;
50531;SDS011;36483;37.396;-122.212;2023-06-14T13:30:10;2.17;;;1.70;;
50531;SDS011;36483;37.396;-122.212;2023-06-14T13:32:37;2.92;;;1.83;;
50531;SDS011;36483;37.396;-122.212;2023-06-14T13:35:03;2.53;;;1.90;;
50531;SDS011;36483;37.396;-122.212;2023-06-14T13:37:30;2.45;;;1.70;;
50531;SDS011;36483;37.396;-122.212;2023-06-14T13:39:56;3.53;;;1.60;;
50531;SDS011;36483;37.396;-122.212;2023-06-14T13:42:22;3.08;;;1.90;;
50531;SDS011;36483;37.396;-122.212;2023-06-14T13:44:48;2.70;;;1.90;;
50531;SDS011;36483;37.396;-122.212;2023-06-14T13:47:16;2.13;;;1.60;;
50531;SDS011;36483;37.396;-122.212;2023-06-14T13:49:42;3.03;;;1.85;;
50531;SDS011;36483;37.396;-122.212;2023-06-14T13:52:08;4.65;;;1.98;;
50531;SDS011;36483;37.396;-122.212;2023-06-14T13:54:35;3.78;;;2.08;;
50531;SDS011;36483;37.396;-122.212;2023-06-14T13:57:01;2.72;;;1.85;;
50531;SDS011;36483;37.396;-122.212;2023-06-14T13:59:28;2.63;;;1.88;;
50531;SDS011;36483;37.396;-122.212;2023-06-14T14:01:54;9.98;;;2.60;;
50531;SDS011;36483;37.396;-122.212;2023-06-14T14:04:20;3.83;;;2.25;;
50531;SDS011;36483;37.396;-122.212;2023-06-14T14:06:46;3.95;;;2.13;;
50531;SDS011;36483;37.396;-122.212;2023-06-14T14:09:13;6.22;;;2.72;;
50531;SDS011;36483;37.396;-122.212;2023-06-14T14:11:40;5.72;;;2.38;;
50531;SDS011;36483;37.396;-122.212;2023-06-14T14:14:07;3.92;;;1.73;;
50531;SDS011;36483;37.396;-122.212;2023-06-14T14:16:34;4.47;;;2.60;;
50531;SDS011;36483;37.396;-122.212;2023-06-14T14:19:00;3.15;;;2.20;;
50531;SDS011;36483;37.396;-122.212;2023-06-14T14:21:27;4.03;;;2.13;;
50531;SDS011;36483;37.396;-122.212;2023-06-14T14:23:53;2.85;;;2.05;;
50531;SDS011;36483;37.396;-122.212;2023-06-14T14:26:20;2.67;;;1.38;;
50531;SDS011;36483;37.396;-122.212;2023-06-14T14:28:46;4.05;;;1.65;;